sensor_id;sensor_type;location;lat;lon;timestamp;pressure;altitude;pressure_sealevel;temperature;humidity
76378;BME280;65200;49.500;8.654;2023-05-07T00:01:26;100390.09;;;14.47;77.47
76378;BME280;65200;49.500;8.654;2023-05-07T00:03:53;100397.78;;;14.43;77.71
76378;BME280;65200;49.500;8.654;2023-05-07T00:06:21;100403.59;;;14.40;76.05
76378;BME280;65200;49.500;8.654;2023-05-07T00:08:47;100397.13;;;14.48;76.04
76378;BME280;65200;49.500;8.654;2023-05-07T00:11:14;100399.50;;;14.69;74.20
76378;BME280;65200;49.500;8.654;2023-05-07T00:13:41;100393.34;;;14.62;74.73
76378;BME280;65200;49.500;8.654;2023-05-07T00:16:07;100393.97;;;14.57;76.24
76378;BME280;65200;49.500;8.654;2023-05-07T00:18:33;100385.44;;;14.60;75.76
76378;BME280;65200;49.500;8.654;2023-05-07T00:21:00;100382.16;;;14.58;76.25
76378;BME280;65200;49.500;8.654;2023-05-07T00:23:28;100385.25;;;14.62;77.19
76378;BME280;65200;49.500;8.654;2023-05-07T00:25:54;100381.94;;;14.60;75.93
76378;BME280;65200;49.500;8.654;2023-05-07T00:28:21;100376.53;;;14.60;76.99
76378;BME280;65200;49.500;8.654;2023-05-07T00:30:47;100372.25;;;14.46;77.72
76378;BME280;65200;49.500;8.654;2023-05-07T00:33:14;100364.03;;;14.34;77.78
76378;BME280;65200;49.500;8.654;2023-05-07T00:35:41;100372.97;;;14.15;77.94
76378;BME280;65200;49.500;8.654;2023-05-07T00:38:08;100375.69;;;14.02;80.17
76378;BME280;65200;49.500;8.654;2023-05-07T00:40:36;100372.19;;;14.02;78.67
76378;BME280;65200;49.500;8.654;2023-05-07T00:43:03;100362.66;;;13.99;79.43
76378;BME280;65200;49.500;8.654;2023-05-07T00:45:30;100368.47;;;14.03;78.70
76378;BME280;65200;49.500;8.654;2023-05-07T00:47:57;100366.34;;;14.18;78.81
76378;BME280;65200;49.500;8.654;2023-05-07T00:50:26;100352.47;;;14.08;77.97
76378;BME280;65200;49.500;8.654;2023-05-07T00:52:53;100358.03;;;14.19;77.29
76378;BME280;65200;49.500;8.654;2023-05-07T00:55:23;100365.97;;;14.08;78.19
76378;BME280;65200;49.500;8.654;2023-05-07T00:57:51;100344.25;;;13.90;77.89
76378;BME280;65200;49.500;8.654;2023-05-07T01:00:18;100357.19;;;14.19;77.63
76378;BME280;65200;49.500;8.654;2023-05-07T01:02:45;100357.59;;;14.22;77.27
76378;BME280;65200;49.500;8.654;2023-05-07T01:05:15;100344.13;;;14.29;76.77
76378;BME280;65200;49.500;8.654;2023-05-07T01:07:43;100342.25;;;14.36;76.19
76378;BME280;65200;49.500;8.654;2023-05-07T01:10:10;100341.88;;;14.26;76.09
76378;BME280;65200;49.500;8.654;2023-05-07T01:12:39;100348.47;;;14.30;75.17
76378;BME280;65200;49.500;8.654;2023-05-07T01:15:09;100349.94;;;14.19;75.34
76378;BME280;65200;49.500;8.654;2023-05-07T01:17:36;100346.28;;;14.01;76.43
76378;BME280;65200;49.500;8.654;2023-05-07T01:20:04;100349.59;;;14.03;76.37
76378;BME280;65200;49.500;8.654;2023-05-07T01:22:34;100338.78;;;14.09;75.42
76378;BME280;65200;49.500;8.654;2023-05-07T01:25:02;100339.41;;;14.11;75.07
76378;BME280;65200;49.500;8.654;2023-05-07T01:27:28;100340.69;;;13.96;75.95
76378;BME280;65200;49.500;8.654;2023-05-07T01:29:55;100339.28;;;13.87;76.99
76378;BME280;65200;49.500;8.654;2023-05-07T01:32:27;100337.88;;;13.71;78.87
76378;BME280;65200;49.500;8.654;2023-05-07T01:34:55;100306.81;;;13.62;78.18
76378;BME280;65200;49.500;8.654;2023-05-07T01:37:24;100306.81;;;13.68;75.72
76378;BME280;65200;49.500;8.654;2023-05-07T01:39:53;100328.50;;;13.93;75.74
76378;BME280;65200;49.500;8.654;2023-05-07T01:42:21;100323.31;;;13.92;76.20
76378;BME280;65200;49.500;8.654;2023-05-07T01:44:48;100299.53;;;13.75;76.56
76378;BME280;65200;49.500;8.654;2023-05-07T01:47:14;100323.50;;;13.97;75.17
76378;BME280;65200;49.500;8.654;2023-05-07T01:49:41;100318.56;;;13.94;76.10
76378;BME280;65200;49.500;8.654;2023-05-07T01:52:10;100315.03;;;13.87;77.35
76378;BME280;65200;49.500;8.654;2023-05-07T01:54:36;100291.25;;;13.77;75.75
76378;BME280;65200;49.500;8.654;2023-05-07T01:57:04;100309.41;;;13.95;75.76
76378;BME280;65200;49.500;8.654;2023-05-07T01:59:31;100318.31;;;14.02;75.52
76378;BME280;65200;49.500;8.654;2023-05-07T02:01:57;100332.00;;;14.00;75.33
76378;BME280;65200;49.500;8.654;2023-05-07T02:04:24;100338.13;;;14.27;73.56
76378;BME280;65200;49.500;8.654;2023-05-07T02:06:51;100319.47;;;14.19;74.06
76378;BME280;65200;49.500;8.654;2023-05-07T02:09:18;100330.72;;;14.09;74.90
76378;BME280;65200;49.500;8.654;2023-05-07T02:11:45;100337.56;;;13.99;75.23
76378;BME280;65200;49.500;8.654;2023-05-07T02:14:12;100344.63;;;14.00;74.97
76378;BME280;65200;49.500;8.654;2023-05-07T02:16:39;100343.09;;;14.17;74.52
76378;BME280;65200;49.500;8.654;2023-05-07T02:19:05;100341.91;;;14.06;74.45
76378;BME280;65200;49.500;8.654;2023-05-07T02:21:32;100349.22;;;13.86;76.77
76378;BME280;65200;49.500;8.654;2023-05-07T02:23:58;100336.63;;;13.73;75.62
76378;BME280;65200;49.500;8.654;2023-05-07T02:26:25;100343.25;;;13.71;76.29
76378;BME280;65200;49.500;8.654;2023-05-07T02:28:51;100344.72;;;13.67;76.96
76378;BME280;65200;49.500;8.654;2023-05-07T02:31:20;100341.19;;;13.66;78.44
76378;BME280;65200;49.500;8.654;2023-05-07T02:33:46;100338.13;;;13.43;79.18
76378;BME280;65200;49.500;8.654;2023-05-07T02:36:13;100351.38;;;13.38;79.08
76378;BME280;65200;49.500;8.654;2023-05-07T02:38:39;100344.56;;;13.36;78.68
76378;BME280;65200;49.500;8.654;2023-05-07T02:41:06;100352.84;;;13.34;78.42
76378;BME280;65200;49.500;8.654;2023-05-07T02:43:32;100356.38;;;13.22;79.01
76378;BME280;65200;49.500;8.654;2023-05-07T02:46:03;100359.06;;;13.35;77.99
76378;BME280;65200;49.500;8.654;2023-05-07T02:48:31;100352.84;;;13.08;80.27
76378;BME280;65200;49.500;8.654;2023-05-07T02:50:58;100348.31;;;13.15;79.29
76378;BME280;65200;49.500;8.654;2023-05-07T02:53:24;100347.47;;;13.08;80.39
76378;BME280;65200;49.500;8.654;2023-05-07T02:55:51;100324.06;;;12.89;80.74
76378;BME280;65200;49.500;8.654;2023-05-07T02:58:18;100347.00;;;12.98;81.82
76378;BME280;65200;49.500;8.654;2023-05-07T03:00:45;100344.78;;;13.08;80.87
76378;BME280;65200;49.500;8.654;2023-05-07T03:03:11;100354.91;;;13.13;80.82
76378;BME280;65200;49.500;8.654;2023-05-07T03:05:39;100346.22;;;13.30;79.61
76378;BME280;65200;49.500;8.654;2023-05-07T03:08:06;100341.47;;;13.26;81.40
76378;BME280;65200;49.500;8.654;2023-05-07T03:10:33;100341.25;;;13.34;80.05
76378;BME280;65200;49.500;8.654;2023-05-07T03:13:00;100349.94;;;13.29;80.57
76378;BME280;65200;49.500;8.654;2023-05-07T03:15:27;100336.50;;;13.29;80.27
76378;BME280;65200;49.500;8.654;2023-05-07T03:17:53;100319.50;;;13.16;80.16
76378;BME280;65200;49.500;8.654;2023-05-07T03:20:20;100340.84;;;13.11;80.24
76378;BME280;65200;49.500;8.654;2023-05-07T03:22:48;100330.91;;;13.11;80.55
76378;BME280;65200;49.500;8.654;2023-05-07T03:25:14;100334.19;;;13.00;80.09
76378;BME280;65200;49.500;8.654;2023-05-07T03:27:43;100330.69;;;13.13;80.19
76378;BME280;65200;49.500;8.654;2023-05-07T03:30:11;100328.19;;;12.98;82.37
76378;BME280;65200;49.500;8.654;2023-05-07T03:32:38;100323.41;;;12.87;81.06
76378;BME280;65200;49.500;8.654;2023-05-07T03:35:05;100324.47;;;12.93;82.14
76378;BME280;65200;49.500;8.654;2023-05-07T03:37:31;100305.63;;;12.67;82.17
76378;BME280;65200;49.500;8.654;2023-05-07T03:39:59;100329.00;;;12.86;81.31
76378;BME280;65200;49.500;8.654;2023-05-07T03:42:25;100325.06;;;12.75;82.67
76378;BME280;65200;49.500;8.654;2023-05-07T03:44:52;100321.78;;;12.86;82.08
76378;BME280;65200;49.500;8.654;2023-05-07T03:47:18;100311.03;;;12.86;80.43
76378;BME280;65200;49.500;8.654;2023-05-07T03:49:45;100325.72;;;13.03;80.76
76378;BME280;65200;49.500;8.654;2023-05-07T03:52:11;100313.50;;;12.88;82.60
76378;BME280;65200;49.500;8.654;2023-05-07T03:54:38;100332.72;;;12.98;80.63
76378;BME280;65200;49.500;8.654;2023-05-07T03:57:06;100333.97;;;12.95;81.08
76378;BME280;65200;49.500;8.654;2023-05-07T03:59:32;100341.00;;;12.96;82.51
76378;BME280;65200;49.500;8.654;2023-05-07T04:01:59;100328.81;;;12.87;80.78
76378;BME280;65200;49.500;8.654;2023-05-07T04:04:25;100336.25;;;12.98;81.23
76378;BME280;65200;49.500;8.654;2023-05-07T04:06:52;100346.16;;;12.91;82.66
76378;BME280;65200;49.500;8.654;2023-05-07T04:09:18;100341.00;;;12.83;81.10
76378;BME280;65200;49.500;8.654;2023-05-07T04:11:45;100322.78;;;12.72;81.67
76378;BME280;65200;49.500;8.654;2023-05-07T04:14:13;100364.19;;;12.84;82.36
76378;BME280;65200;49.500;8.654;2023-05-07T04:16:39;100358.16;;;12.76;82.51
76378;BME280;65200;49.500;8.654;2023-05-07T04:19:05;100355.47;;;12.82;83.22
76378;BME280;65200;49.500;8.654;2023-05-07T04:21:32;100351.34;;;12.80;82.89
76378;BME280;65200;49.500;8.654;2023-05-07T04:23:58;100355.28;;;12.90;81.10
76378;BME280;65200;49.500;8.654;2023-05-07T04:26:25;100353.06;;;13.07;80.86
76378;BME280;65200;49.500;8.654;2023-05-07T04:28:51;100353.84;;;12.94;81.11
76378;BME280;65200;49.500;8.654;2023-05-07T04:31:19;100351.00;;;13.02;80.97
76378;BME280;65200;49.500;8.654;2023-05-07T04:33:46;100353.78;;;12.49;84.08
76378;BME280;65200;49.500;8.654;2023-05-07T04:36:12;100340.94;;;12.57;83.04
76378;BME280;65200;49.500;8.654;2023-05-07T04:38:39;100356.53;;;12.81;83.74
76378;BME280;65200;49.500;8.654;2023-05-07T04:41:06;100354.44;;;12.90;83.65
76378;BME280;65200;49.500;8.654;2023-05-07T04:43:33;100356.94;;;12.78;82.12
76378;BME280;65200;49.500;8.654;2023-05-07T04:45:59;100360.50;;;13.05;82.59
76378;BME280;65200;49.500;8.654;2023-05-07T04:48:27;100355.97;;;13.31;81.60
76378;BME280;65200;49.500;8.654;2023-05-07T04:50:54;100363.19;;;13.37;79.57
76378;BME280;65200;49.500;8.654;2023-05-07T04:53:20;100346.63;;;13.40;80.89
76378;BME280;65200;49.500;8.654;2023-05-07T04:55:47;100356.75;;;13.45;81.60
76378;BME280;65200;49.500;8.654;2023-05-07T04:58:14;100373.31;;;13.55;81.00
76378;BME280;65200;49.500;8.654;2023-05-07T05:00:41;100366.47;;;13.65;79.37
76378;BME280;65200;49.500;8.654;2023-05-07T05:03:07;100365.22;;;13.74;78.64
76378;BME280;65200;49.500;8.654;2023-05-07T05:05:35;100362.06;;;13.84;79.78
76378;BME280;65200;49.500;8.654;2023-05-07T05:08:01;100373.00;;;14.02;80.00
76378;BME280;65200;49.500;8.654;2023-05-07T05:10:28;100344.69;;;13.87;78.13
76378;BME280;65200;49.500;8.654;2023-05-07T05:12:54;100369.84;;;14.18;79.08
76378;BME280;65200;49.500;8.654;2023-05-07T05:15:21;100367.31;;;14.36;79.25
76378;BME280;65200;49.500;8.654;2023-05-07T05:17:48;100358.59;;;14.41;77.03
76378;BME280;65200;49.500;8.654;2023-05-07T05:20:14;100367.06;;;14.44;76.54
76378;BME280;65200;49.500;8.654;2023-05-07T05:22:42;100354.41;;;14.45;77.21
76378;BME280;65200;49.500;8.654;2023-05-07T05:25:09;100361.41;;;14.52;76.16
76378;BME280;65200;49.500;8.654;2023-05-07T05:27:36;100367.97;;;14.69;77.74
76378;BME280;65200;49.500;8.654;2023-05-07T05:30:03;100368.72;;;14.83;76.51
76378;BME280;65200;49.500;8.654;2023-05-07T05:32:30;100370.25;;;15.03;76.79
76378;BME280;65200;49.500;8.654;2023-05-07T05:34:57;100352.06;;;14.92;75.24
76378;BME280;65200;49.500;8.654;2023-05-07T05:37:23;100374.13;;;15.07;75.13
76378;BME280;65200;49.500;8.654;2023-05-07T05:39:52;100369.81;;;15.31;74.72
76378;BME280;65200;49.500;8.654;2023-05-07T05:42:19;100378.06;;;15.43;74.15
76378;BME280;65200;49.500;8.654;2023-05-07T05:44:46;100378.56;;;15.58;74.81
76378;BME280;65200;49.500;8.654;2023-05-07T05:47:13;100386.72;;;15.51;74.09
76378;BME280;65200;49.500;8.654;2023-05-07T05:49:40;100389.94;;;15.60;74.15
76378;BME280;65200;49.500;8.654;2023-05-07T05:52:08;100378.09;;;15.36;74.95
76378;BME280;65200;49.500;8.654;2023-05-07T05:54:34;100385.91;;;15.20;77.57
76378;BME280;65200;49.500;8.654;2023-05-07T05:57:02;100395.28;;;15.17;76.34
76378;BME280;65200;49.500;8.654;2023-05-07T05:59:29;100395.69;;;15.14;77.26
76378;BME280;65200;49.500;8.654;2023-05-07T06:01:56;100392.25;;;15.32;78.90
76378;BME280;65200;49.500;8.654;2023-05-07T06:04:22;100400.53;;;15.37;80.30
76378;BME280;65200;49.500;8.654;2023-05-07T06:06:49;100341.97;;;15.06;77.68
76378;BME280;65200;49.500;8.654;2023-05-07T06:09:15;100384.38;;;15.55;76.84
76378;BME280;65200;49.500;8.654;2023-05-07T06:11:42;100400.28;;;15.69;78.75
76378;BME280;65200;49.500;8.654;2023-05-07T06:14:10;100370.00;;;15.61;81.02
76378;BME280;65200;49.500;8.654;2023-05-07T06:16:36;100408.63;;;16.04;77.87
76378;BME280;65200;49.500;8.654;2023-05-07T06:19:03;100409.47;;;16.22;79.07
76378;BME280;65200;49.500;8.654;2023-05-07T06:21:30;100406.84;;;16.34;78.74
76378;BME280;65200;49.500;8.654;2023-05-07T06:23:57;100400.22;;;16.48;76.71
76378;BME280;65200;49.500;8.654;2023-05-07T06:26:23;100393.16;;;16.65;75.18
76378;BME280;65200;49.500;8.654;2023-05-07T06:28:50;100398.34;;;16.67;74.03
76378;BME280;65200;49.500;8.654;2023-05-07T06:31:19;100403.81;;;16.90;77.11
76378;BME280;65200;49.500;8.654;2023-05-07T06:33:46;100401.00;;;16.96;75.17
76378;BME280;65200;49.500;8.654;2023-05-07T06:36:13;100401.44;;;17.11;72.97
76378;BME280;65200;49.500;8.654;2023-05-07T06:38:40;100392.38;;;17.17;74.91
76378;BME280;65200;49.500;8.654;2023-05-07T06:41:06;100404.63;;;17.20;76.12
76378;BME280;65200;49.500;8.654;2023-05-07T06:43:33;100384.72;;;17.26;78.01
76378;BME280;65200;49.500;8.654;2023-05-07T06:46:00;100384.03;;;17.30;75.57
76378;BME280;65200;49.500;8.654;2023-05-07T06:48:27;100399.06;;;17.56;73.23
76378;BME280;65200;49.500;8.654;2023-05-07T06:50:54;100402.59;;;17.68;72.83
76378;BME280;65200;49.500;8.654;2023-05-07T06:53:22;100396.50;;;17.61;71.96
76378;BME280;65200;49.500;8.654;2023-05-07T06:55:49;100396.50;;;17.61;73.62
76378;BME280;65200;49.500;8.654;2023-05-07T06:58:17;100401.69;;;17.74;71.22
76378;BME280;65200;49.500;8.654;2023-05-07T07:00:43;100394.09;;;17.99;72.67
76378;BME280;65200;49.500;8.654;2023-05-07T07:03:11;100396.81;;;18.11;70.94
76378;BME280;65200;49.500;8.654;2023-05-07T07:05:40;100398.66;;;18.33;69.19
76378;BME280;65200;49.500;8.654;2023-05-07T07:08:06;100387.44;;;18.30;70.00
76378;BME280;65200;49.500;8.654;2023-05-07T07:10:33;100350.97;;;18.37;69.99
76378;BME280;65200;49.500;8.654;2023-05-07T07:12:59;100397.56;;;18.85;67.13
76378;BME280;65200;49.500;8.654;2023-05-07T07:15:26;100404.31;;;18.83;66.82
76378;BME280;65200;49.500;8.654;2023-05-07T07:17:53;100409.53;;;18.73;68.74
76378;BME280;65200;49.500;8.654;2023-05-07T07:20:19;100404.84;;;18.68;67.39
76378;BME280;65200;49.500;8.654;2023-05-07T07:22:47;100411.53;;;18.77;69.36
76378;BME280;65200;49.500;8.654;2023-05-07T07:25:13;100414.44;;;18.87;70.49
76378;BME280;65200;49.500;8.654;2023-05-07T07:27:40;100404.84;;;19.13;68.32
76378;BME280;65200;49.500;8.654;2023-05-07T07:30:07;100417.25;;;19.37;66.99
76378;BME280;65200;49.500;8.654;2023-05-07T07:32:34;100424.66;;;20.08;64.51
76378;BME280;65200;49.500;8.654;2023-05-07T07:35:00;100411.91;;;20.13;62.76
76378;BME280;65200;49.500;8.654;2023-05-07T07:37:27;100420.88;;;20.95;58.02
76378;BME280;65200;49.500;8.654;2023-05-07T07:39:56;100415.31;;;21.33;57.17
76378;BME280;65200;49.500;8.654;2023-05-07T07:42:22;100389.56;;;21.88;55.33
76378;BME280;65200;49.500;8.654;2023-05-07T07:44:49;100407.38;;;23.29;51.17
76378;BME280;65200;49.500;8.654;2023-05-07T07:47:16;100419.34;;;23.13;51.50
76378;BME280;65200;49.500;8.654;2023-05-07T07:49:42;100413.91;;;22.51;53.31
76378;BME280;65200;49.500;8.654;2023-05-07T07:52:09;100422.81;;;21.85;53.49
76378;BME280;65200;49.500;8.654;2023-05-07T07:54:36;100424.34;;;21.39;57.47
76378;BME280;65200;49.500;8.654;2023-05-07T07:57:03;100426.16;;;21.28;57.99
76378;BME280;65200;49.500;8.654;2023-05-07T07:59:30;100416.88;;;21.03;57.79
76378;BME280;65200;49.500;8.654;2023-05-07T08:01:56;100420.69;;;20.54;58.40
76378;BME280;65200;49.500;8.654;2023-05-07T08:04:23;100421.78;;;20.79;59.08
76378;BME280;65200;49.500;8.654;2023-05-07T08:06:50;100419.72;;;21.13;56.92
76378;BME280;65200;49.500;8.654;2023-05-07T08:09:19;100422.13;;;21.09;56.47
76378;BME280;65200;49.500;8.654;2023-05-07T08:11:46;100424.97;;;21.19;58.93
76378;BME280;65200;49.500;8.654;2023-05-07T08:14:14;100425.88;;;20.82;60.90
76378;BME280;65200;49.500;8.654;2023-05-07T08:16:42;100432.41;;;20.16;64.52
76378;BME280;65200;49.500;8.654;2023-05-07T08:19:08;100434.16;;;19.89;66.01
76378;BME280;65200;49.500;8.654;2023-05-07T08:21:38;100406.06;;;19.67;67.29
76378;BME280;65200;49.500;8.654;2023-05-07T08:24:05;100446.59;;;20.01;67.16
76378;BME280;65200;49.500;8.654;2023-05-07T08:26:32;100451.53;;;20.04;64.97
76378;BME280;65200;49.500;8.654;2023-05-07T08:28:58;100445.50;;;20.02;65.48
76378;BME280;65200;49.500;8.654;2023-05-07T08:31:26;100445.72;;;19.63;65.84
76378;BME280;65200;49.500;8.654;2023-05-07T08:33:52;100445.06;;;19.56;65.54
76378;BME280;65200;49.500;8.654;2023-05-07T08:36:19;100455.00;;;19.50;67.71
76378;BME280;65200;49.500;8.654;2023-05-07T08:38:46;100452.94;;;19.41;65.06
76378;BME280;65200;49.500;8.654;2023-05-07T08:41:12;100445.94;;;19.17;63.36
76378;BME280;65200;49.500;8.654;2023-05-07T08:43:40;100462.84;;;19.19;63.38
76378;BME280;65200;49.500;8.654;2023-05-07T08:46:09;100456.75;;;19.40;62.62
76378;BME280;65200;49.500;8.654;2023-05-07T08:48:37;100426.44;;;19.48;63.30
76378;BME280;65200;49.500;8.654;2023-05-07T08:51:05;100470.91;;;19.75;63.01
76378;BME280;65200;49.500;8.654;2023-05-07T08:53:31;100444.88;;;19.46;64.84
76378;BME280;65200;49.500;8.654;2023-05-07T08:55:59;100472.06;;;19.62;63.70
76378;BME280;65200;49.500;8.654;2023-05-07T08:58:25;100474.47;;;19.59;65.80
76378;BME280;65200;49.500;8.654;2023-05-07T09:00:52;100457.06;;;19.43;65.95
76378;BME280;65200;49.500;8.654;2023-05-07T09:03:20;100469.09;;;19.47;64.40
76378;BME280;65200;49.500;8.654;2023-05-07T09:05:48;100459.22;;;19.58;63.52
76378;BME280;65200;49.500;8.654;2023-05-07T09:08:15;100447.44;;;19.69;67.35
76378;BME280;65200;49.500;8.654;2023-05-07T09:10:41;100433.59;;;19.70;66.73
76378;BME280;65200;49.500;8.654;2023-05-07T09:13:08;100445.59;;;20.07;64.18
76378;BME280;65200;49.500;8.654;2023-05-07T09:15:39;100447.78;;;20.65;63.92
76378;BME280;65200;49.500;8.654;2023-05-07T09:18:10;100427.16;;;20.96;66.36
76378;BME280;65200;49.500;8.654;2023-05-07T09:20:38;100421.34;;;20.87;65.31
76378;BME280;65200;49.500;8.654;2023-05-07T09:23:07;100403.69;;;20.47;66.23
76378;BME280;65200;49.500;8.654;2023-05-07T09:25:35;100435.47;;;20.63;65.73
76378;BME280;65200;49.500;8.654;2023-05-07T09:28:04;100444.16;;;20.38;66.93
76378;BME280;65200;49.500;8.654;2023-05-07T09:30:33;100435.03;;;20.27;68.80
76378;BME280;65200;49.500;8.654;2023-05-07T09:33:02;100438.50;;;20.23;66.29
76378;BME280;65200;49.500;8.654;2023-05-07T09:35:30;100428.47;;;19.90;68.99
76378;BME280;65200;49.500;8.654;2023-05-07T09:37:58;100442.78;;;20.02;67.38
76378;BME280;65200;49.500;8.654;2023-05-07T09:40:28;100444.38;;;19.98;68.50
76378;BME280;65200;49.500;8.654;2023-05-07T09:42:55;100438.53;;;19.90;66.14
76378;BME280;65200;49.500;8.654;2023-05-07T09:45:22;100449.22;;;20.13;67.59
76378;BME280;65200;49.500;8.654;2023-05-07T09:47:54;100444.69;;;20.18;64.88
76378;BME280;65200;49.500;8.654;2023-05-07T09:50:26;100441.50;;;20.43;69.27
76378;BME280;65200;49.500;8.654;2023-05-07T09:52:53;100437.00;;;20.54;63.23
76378;BME280;65200;49.500;8.654;2023-05-07T09:55:20;100443.16;;;20.44;63.48
76378;BME280;65200;49.500;8.654;2023-05-07T09:57:50;100448.56;;;20.87;61.10
76378;BME280;65200;49.500;8.654;2023-05-07T10:00:18;100434.69;;;21.37;59.58
76378;BME280;65200;49.500;8.654;2023-05-07T10:02:47;100441.09;;;21.79;57.94
76378;BME280;65200;49.500;8.654;2023-05-07T10:05:15;100439.16;;;22.16;56.94
76378;BME280;65200;49.500;8.654;2023-05-07T10:07:42;100412.66;;;22.12;57.31
76378;BME280;65200;49.500;8.654;2023-05-07T10:10:09;100430.09;;;22.52;56.84
76378;BME280;65200;49.500;8.654;2023-05-07T10:12:36;100419.44;;;22.56;57.44
76378;BME280;65200;49.500;8.654;2023-05-07T10:15:07;100414.38;;;22.89;55.94
76378;BME280;65200;49.500;8.654;2023-05-07T10:17:35;100416.00;;;22.90;59.24
76378;BME280;65200;49.500;8.654;2023-05-07T10:20:02;100410.63;;;23.21;59.10
76378;BME280;65200;49.500;8.654;2023-05-07T10:22:33;100427.03;;;23.31;60.41
76378;BME280;65200;49.500;8.654;2023-05-07T10:25:02;100415.50;;;23.03;58.49
76378;BME280;65200;49.500;8.654;2023-05-07T10:27:30;100411.91;;;22.98;57.57
76378;BME280;65200;49.500;8.654;2023-05-07T10:30:04;100399.94;;;23.09;57.95
76378;BME280;65200;49.500;8.654;2023-05-07T10:32:39;100399.94;;;23.24;58.03
76378;BME280;65200;49.500;8.654;2023-05-07T10:35:10;100403.28;;;23.46;56.97
76378;BME280;65200;49.500;8.654;2023-05-07T10:37:38;100402.16;;;23.62;53.60
76378;BME280;65200;49.500;8.654;2023-05-07T10:40:07;100395.31;;;23.75;56.73
76378;BME280;65200;49.500;8.654;2023-05-07T10:42:34;100393.66;;;23.84;55.33
76378;BME280;65200;49.500;8.654;2023-05-07T10:45:11;100393.94;;;23.87;55.85
76378;BME280;65200;49.500;8.654;2023-05-07T10:48:07;100406.53;;;24.08;54.87
76378;BME280;65200;49.500;8.654;2023-05-07T10:50:35;100409.75;;;24.30;54.53
76378;BME280;65200;49.500;8.654;2023-05-07T10:53:24;100397.72;;;24.21;51.57
76378;BME280;65200;49.500;8.654;2023-05-07T10:56:23;100398.03;;;24.00;55.67
76378;BME280;65200;49.500;8.654;2023-05-07T10:58:50;100397.47;;;24.18;52.01
76378;BME280;65200;49.500;8.654;2023-05-07T11:01:49;100394.97;;;24.21;51.87
76378;BME280;65200;49.500;8.654;2023-05-07T11:04:17;100390.53;;;24.41;48.38
76378;BME280;65200;49.500;8.654;2023-05-07T11:07:20;100378.09;;;24.68;52.34
76378;BME280;65200;49.500;8.654;2023-05-07T11:09:57;100386.03;;;24.70;47.56
76378;BME280;65200;49.500;8.654;2023-05-07T11:12:54;100387.28;;;24.92;52.41
76378;BME280;65200;49.500;8.654;2023-05-07T11:15:41;100378.56;;;25.24;50.09
76378;BME280;65200;49.500;8.654;2023-05-07T11:18:10;100373.78;;;25.01;46.40
76378;BME280;65200;49.500;8.654;2023-05-07T11:21:02;100364.97;;;25.42;46.11
76378;BME280;65200;49.500;8.654;2023-05-07T11:26:48;100375.59;;;25.54;47.76
76378;BME280;65200;49.500;8.654;2023-05-07T11:29:16;100372.47;;;25.37;47.27
76378;BME280;65200;49.500;8.654;2023-05-07T11:31:43;100374.66;;;25.30;46.89
76378;BME280;65200;49.500;8.654;2023-05-07T11:34:10;100372.72;;;25.69;51.12
76378;BME280;65200;49.500;8.654;2023-05-07T11:36:43;100372.16;;;25.96;47.32
76378;BME280;65200;49.500;8.654;2023-05-07T11:39:25;100370.78;;;26.45;40.12
76378;BME280;65200;49.500;8.654;2023-05-07T11:41:51;100363.44;;;26.59;45.10
76378;BME280;65200;49.500;8.654;2023-05-07T11:44:18;100361.47;;;26.41;44.89
76378;BME280;65200;49.500;8.654;2023-05-07T11:46:45;100347.94;;;26.26;48.11
76378;BME280;65200;49.500;8.654;2023-05-07T11:49:11;100357.50;;;26.10;49.63
76378;BME280;65200;49.500;8.654;2023-05-07T11:51:38;100349.69;;;25.65;42.84
76378;BME280;65200;49.500;8.654;2023-05-07T11:54:08;100353.88;;;25.24;43.02
76378;BME280;65200;49.500;8.654;2023-05-07T11:56:37;100349.59;;;25.08;47.96
76378;BME280;65200;49.500;8.654;2023-05-07T11:59:04;100352.75;;;24.91;44.61
76378;BME280;65200;49.500;8.654;2023-05-07T12:01:30;100358.41;;;25.00;45.25
76378;BME280;65200;49.500;8.654;2023-05-07T12:03:57;100357.31;;;24.52;44.20
76378;BME280;65200;49.500;8.654;2023-05-07T12:06:23;100351.69;;;24.18;45.58
76378;BME280;65200;49.500;8.654;2023-05-07T12:08:50;100363.50;;;24.14;45.80
76378;BME280;65200;49.500;8.654;2023-05-07T12:11:23;100358.59;;;24.01;48.22
76378;BME280;65200;49.500;8.654;2023-05-07T12:13:50;100338.53;;;24.25;44.08
76378;BME280;65200;49.500;8.654;2023-05-07T12:16:17;100335.13;;;24.54;42.62
76378;BME280;65200;49.500;8.654;2023-05-07T12:18:46;100349.66;;;25.03;46.18
76378;BME280;65200;49.500;8.654;2023-05-07T12:21:12;100340.03;;;25.34;40.60
76378;BME280;65200;49.500;8.654;2023-05-07T12:23:39;100340.75;;;26.30;38.66
76378;BME280;65200;49.500;8.654;2023-05-07T12:26:06;100346.59;;;27.22;42.46
76378;BME280;65200;49.500;8.654;2023-05-07T12:28:37;100347.16;;;27.56;41.17
76378;BME280;65200;49.500;8.654;2023-05-07T12:31:05;100341.78;;;27.32;38.33
76378;BME280;65200;49.500;8.654;2023-05-07T12:33:32;100331.97;;;27.72;38.93
76378;BME280;65200;49.500;8.654;2023-05-07T12:36:03;100328.41;;;27.71;33.92
76378;BME280;65200;49.500;8.654;2023-05-07T12:38:34;100341.59;;;27.74;35.45
76378;BME280;65200;49.500;8.654;2023-05-07T12:41:02;100332.22;;;26.92;37.17
76378;BME280;65200;49.500;8.654;2023-05-07T12:43:29;100337.41;;;26.75;38.65
76378;BME280;65200;49.500;8.654;2023-05-07T12:45:59;100333.22;;;27.34;37.50
76378;BME280;65200;49.500;8.654;2023-05-07T12:48:26;100337.41;;;26.75;38.20
76378;BME280;65200;49.500;8.654;2023-05-07T12:50:57;100322.25;;;26.36;38.54
76378;BME280;65200;49.500;8.654;2023-05-07T12:53:25;100327.41;;;26.42;37.57
76378;BME280;65200;49.500;8.654;2023-05-07T12:55:53;100321.31;;;26.45;40.71
76378;BME280;65200;49.500;8.654;2023-05-07T12:58:26;100317.78;;;26.40;38.25